Davison, Michigan
Current Conditions -  °F | °C
As of 2:33 PM on Friday 24 Oct 2014 (Local Time) from KD95 Reporting Station
Overcast Overcast  
Wind Chill: 57°   Ceiling: 3800
Heat Index: 57°   Visibility: 10mi
Dew Point: 43°   Wind: 5mph
Humidity: 59%   Direction: 230°SW
Pressure: 29.99"   Gusts: NA
Location:  43.03°N, 83.51°W
Report Text: KD95 241833Z AUTO 23004KT 10SM OVC038 14/06 A2999 RMK AO2 T01400062
Loading
Personal Weather Stations






























Interactive Weather Map
Tropical Storm Tracking
New forecast layout! Learn more

10-Day Weather Forecast

Advertisements
Track Severe Weather on mobile